This demonstration page uses our WeatherBlox Daily Observations layout. Learn more.

39.29038, -76.61219

Hourly Observations for April 9, 2019

Temp ( °F °C ) Dew Point ( °F °C ) Humidity (%) Winds ( mph kmh ) Pressure ( in mb ) Visibility ( mi km ) Precip ( " mm )
12:54 am 00:54 undefined 67 19.4 58 14.4 73 73 undefined N/A 29.78 1009 N/A 0 0
1:54 am 01:54 undefined 67 19.4 58 14.4 73 73 undefined N/A 29.75 1007 N/A 0 0
2:54 am 02:54 undefined 66 18.9 60 15.6 81 81 undefined N/A 29.72 1007 N/A 0 0
3:54 am 03:54 undefined 66 18.9 59 15 78 78 undefined N/A 29.72 1006 N/A 0 0
4:54 am 04:54 undefined 65 18.3 57 13.9 76 76 undefined N/A 29.7 1006 N/A 0 0
5:54 am 05:54 undefined 65 18.3 56 13.3 73 73 undefined N/A 29.69 1006 N/A 0 0
6:54 am 06:54 undefined 64 17.8 55 12.8 73 73 undefined N/A 29.69 1006 N/A 0 0
7:54 am 07:54 undefined 65 18.3 56 13.3 73 73 undefined N/A 29.7 1006 N/A 0 0
8:54 am 08:54 undefined 67 19.4 56 13.3 68 68 undefined N/A 29.7 1006 N/A 0 0
9:54 am 09:54 undefined 70 21.1 54 12.2 57 57 undefined N/A 29.67 1005 N/A 0 0
10:54 am 10:54 undefined 73 22.8 54 12.2 51 51 undefined N/A 29.67 1005 N/A 0 0
11:54 am 11:54 undefined 75 23.9 54 12.2 48 48 undefined N/A 29.66 1004 N/A 0 0
12:54 pm 12:54 undefined 76 24.4 53 11.7 45 45 undefined N/A 29.63 1003 N/A 0 0
1:54 pm 13:54 undefined 77 25 51 10.6 40 40 undefined N/A 29.6 1002 N/A 0 0
2:54 pm 14:54 undefined 77 25 50 10 39 39 undefined N/A 29.58 1002 N/A 0 0
3:54 pm 15:54 undefined 78 25.6 51 10.6 39 39 undefined N/A 29.54 1000 N/A 0 0
4:54 pm 16:54 undefined 80 26.7 48 8.9 33 33 undefined N/A 29.51 999 N/A 0 0
5:54 pm 17:54 undefined 79 26.1 46 7.8 31 31 undefined N/A 29.51 999 N/A 0 0
6:54 pm 18:54 undefined 78 25.6 46 7.8 32 32 undefined N/A 29.54 1000 N/A 0 0
7:54 pm 19:54 undefined 75 23.9 34 1.1 22 22 undefined N/A 29.58 1002 N/A 0 0
8:54 pm 20:54 undefined 72 22.2 26 -3.3 18 18 undefined N/A 29.63 1003 N/A 0 0
9:54 pm 21:54 undefined 70 21.1 22 -5.6 16 16 undefined N/A 29.67 1005 N/A 0 0
10:54 pm 22:54 undefined 67 19.4 20 -6.7 17 17 undefined N/A 29.7 1006 N/A 0 0
11:54 pm 23:54 undefined 65 18.3 22 -5.6 19 19 undefined N/A 29.71 1006 N/A 0 0

Powered by AerisWeather